Terminal Aerodrome Forecast
Issued by NWS Grand Junction, CO

Current Version | Previous Version | Text Only | Print | Product List | Glossary On
Versions: 1 2 3 4 5 6 7 8 9 10 11 12 13
000
FTUS45 KGJT 181720
TAFGJT
TAF
KGJT 181720Z 1818/1918 13008KT P6SM FEW250
     FM182000 28007KT P6SM FEW250
     FM190300 04004KT P6SM FEW250
     FM190700 10007KT P6SM FEW250
     FM191500 13007KT P6SM FEW250=

USA.gov is the U.S. government's official web portal to all federal, state and local government web resources and services.